This is the latest recevied weather packets stored in our database for station/object W4GAP. If no packets are shown the sender has not sent any weather packets the latest 10 day(s).
| Time | Temp. | Humidity | Pressure | Rain* | Wind** | Luminosity | Snow |
|---|---|---|---|---|---|---|---|
| 1777906561 | 18.89° C | 50% | 1015.2 hPa | 0 mm | - | 114 W/m² | - |
| 1777906256 | 18.33° C | 51% | 1015.2 hPa | 0 mm | - | 65 W/m² | - |
| 1777905953 | 18.33° C | 52% | 1015.1 hPa | 0 mm | - | 33 W/m² | - |
| 1777905650 | 18.33° C | 53% | 1015.2 hPa | 0 mm | - | 31 W/m² | - |
| 1777905347 | 17.78° C | 54% | 1015.2 hPa | 0 mm | - | 28 W/m² | - |
| 1777905044 | 17.78° C | 56% | 1015.2 hPa | 0 mm | - | 26 W/m² | - |
| 1777904742 | 17.22° C | 55% | 1015.2 hPa | 0 mm | - | 35 W/m² | - |
| 1777904439 | 17.22° C | 56% | 1015.3 hPa | 0 mm | - | 31 W/m² | - |
| 1777904135 | 17.22° C | 55% | 1015.2 hPa | 0 mm | - | 25 W/m² | - |
| 1777903832 | 17.22° C | 57% | 1015.2 hPa | 0 mm | - | 23 W/m² | - |
| 1777903529 | 16.67° C | 58% | 1015.3 hPa | 0 mm | - | 26 W/m² | - |
| 1777903225 | 16.67° C | 58% | 1015.3 hPa | 0 mm | - | 23 W/m² | - |
| 1777902921 | 16.11° C | 58% | 1015.4 hPa | 0 mm | - | 36 W/m² | - |
| 1777902618 | 16.11° C | 61% | 1015.3 hPa | 0 mm | - | 98 W/m² | - |
| 1777902315 | 15.56° C | 63% | 1015.3 hPa | 0 mm | - | 53 W/m² | - |
| 1777902013 | 15° C | 64% | 1015.4 hPa | 0 mm | - | 27 W/m² | - |
| 1777901711 | 15° C | 64% | 1015.3 hPa | 0 mm | - | 23 W/m² | - |
| 1777901408 | 15° C | 65% | 1015.2 hPa | 0 mm | - | 21 W/m² | - |
| 1777901105 | 14.44° C | 66% | 1015.3 hPa | 0 mm | - | 19 W/m² | - |
| 1777900803 | 14.44° C | 67% | 1015.1 hPa | 0 mm | - | 19 W/m² | - |
| 1777900500 | 13.89° C | 67% | 1015.3 hPa | 0 mm | - | 19 W/m² | - |
| 1777900197 | 13.89° C | 68% | 1015.4 hPa | 0 mm | - | 19 W/m² | - |
| 1777899893 | 13.33° C | 70% | 1015.5 hPa | 0 mm | - | 16 W/m² | - |
| 1777899590 | 13.33° C | 71% | 1015.2 hPa | 0 mm | - | 15 W/m² | - |
| 1777899288 | 12.78° C | 72% | 1015.3 hPa | 0 mm | - | 14 W/m² | - |
* Rain latest hour (hover to see other rain measurements)
** Current wind speed in m/s (hover to see current wind gust speed)